Stryn, Norway

5:53 PM CEST on July 25, 2016 (GMT +0200)
Lauki | | Change Station

Elev 197 ft 61.81 °N, 6.81 °E | Updated 3 minutes ago

Mostly Cloudy
Mostly Cloudy
70.2 °F
Feels Like 74 °F
N
5.0
Wind Variable Wind from West
Gusts 5.0 mph

Today
High -- | Low -- °F
--% Chance of Precip.
Yesterday
High -- | Low -- °F
Precip. -- in
Pressure 29.83 in
Visibility 6.2 miles
Clouds Scattered Clouds 6000 ft
Mostly Cloudy 8000 ft
Heat Index 74 °F
Dew Point 60 °F
Humidity 71%
Rainfall 0.00 in
Snow Depth Not available.
4:43 AM 10:35 PM
Waning Gibbous, 65% visible
METAR ENSD 251450Z 05006KT 9999 SCT060 BKN080 21/15 Q1010 RMK WIND 1138FT 07004KT
Pressure 29.83 in
Visibility 6.2 miles
Clouds Scattered Clouds 6000 ft
Mostly Cloudy 8000 ft
Heat Index 74 °F
Dew Point 60 °F
Humidity 71%
Rainfall 0.00 in
Snow Depth Not available.
4:43 AM 10:35 PM
Waning Gibbous, 65% visible
METAR ENSD 251450Z 05006KT 9999 SCT060 BKN080 21/15 Q1010 RMK WIND 1138FT 07004KT

10-Day Weather Forecast

×

Almanac

Astronomy

Jul. 25, 2016 Rise Set
Actual Time
Civil Twilight
Nautical Twilight
Astronomical Twilight
Moon
Length of Visible Light
Length of Day
Tomorrow will be .
, % of the Moon is Illuminated

Today's Extremes

Country Highs Country Lows

Community

WunderPhotos

Upload Photos

1,927,329 photos uploaded!

WunderBlog® & News

Nearby

Air Quality

  Air Quality AQ Index Pollutant
Not available.

Snow Depth

Station Depth Elevation

Earthquake Activity

City Distance Mag. Time & Date
Minimum magnitude displayed is 2.5.

Coastal Water Temperatures

Place Temperature

Stations

Nearby Weather Stations

Station Location Temp. Windchill Dew Point Humidity Wind Precip. Elev Updated Type